Time;durP1;ratioP1;P1;durP2;ratioP2;P2;SDS_P1;SDS_P2;PMS_P1;PMS_P2;Temp;Humidity;BMP_temperature;BMP_pressure;BME280_temperature;BME280_humidity;BME280_pressure;Samples;Min_cycle;Max_cycle;Signal;HPM_P1;HPM_P2
2022/12/16 00:01:23;;;;;;;;;;;;;;;-0.77;nan;101248.50;5020458;28;20021;-85
2022/12/16 00:03:49;;;;;;;;;;;;;;;-0.78;nan;101246.84;5017527;28;20539;-85
2022/12/16 00:06:42;;;;;;;;;;;;;;;-0.79;nan;101250.47;5019319;28;19925;-85
2022/12/16 00:09:10;;;;;;;;;;;;;;;-0.84;nan;101252.78;5012278;28;20019;-85
2022/12/16 00:11:39;;;;;;;;;;;;;;;-0.83;nan;101249.16;5000727;28;19933;-85
2022/12/16 00:14:04;;;;;;;;;;;;;;;-0.82;nan;101256.06;5045558;23;20104;-31
2022/12/16 00:16:30;;;;;;;;;;;;;;;-0.80;nan;101249.66;5001011;28;20028;-31
2022/12/16 00:18:55;;;;;;;;;;;;;;;-0.79;nan;101255.75;4998411;28;19929;-31
2022/12/16 00:21:20;;;;;;;;;;;;;;;-0.81;nan;101257.72;5000521;28;19929;-31
2022/12/16 00:23:46;;;;;;;;;;;;;;;-0.84;nan;101253.59;4995805;28;19928;-31
2022/12/16 00:26:12;;;;;;;;;;;;;;;-0.85;nan;101251.13;5000778;28;19929;-31
2022/12/16 00:28:38;;;;;;;;;;;;;;;-0.85;nan;101254.59;4999095;28;19918;-31
2022/12/16 00:31:03;;;;;;;;;;;;;;;-0.84;nan;101255.41;5003509;28;19927;-31
2022/12/16 00:33:29;;;;;;;;;;;;;;;-0.83;nan;101264.94;4997308;28;19918;-31
2022/12/16 00:35:54;;;;;;;;;;;;;;;-0.83;nan;101265.78;5001864;28;20312;-31
2022/12/16 00:38:21;;;;;;;;;;;;;;;-0.84;nan;101273.81;5000134;28;19926;-31
2022/12/16 00:40:46;;;;;;;;;;;;;;;-0.85;nan;101272.19;4999736;28;19917;-31
2022/12/16 00:43:12;;;;;;;;;;;;;;;-0.89;nan;101271.69;5002676;28;19945;-31
2022/12/16 00:45:38;;;;;;;;;;;;;;;-0.93;nan;101271.16;4998964;28;19947;-31
2022/12/16 00:48:03;;;;;;;;;;;;;;;-0.96;nan;101273.28;4992875;28;19917;-31
2022/12/16 00:50:28;;;;;;;;;;;;;;;-1.00;nan;101270.16;5002314;28;19984;-31
2022/12/16 00:52:54;;;;;;;;;;;;;;;-1.02;nan;101280.03;4992103;28;20008;-31
2022/12/16 00:55:19;;;;;;;;;;;;;;;-1.04;nan;101274.09;5002471;28;20243;-31
2022/12/16 00:57:45;;;;;;;;;;;;;;;-1.05;nan;101290.88;5004453;28;19963;-31
2022/12/16 01:00:12;;;;;;;;;;;;;;;-1.09;nan;101292.13;5000933;28;21255;-31
2022/12/16 01:02:45;;;;;;;;;;;;;;;-1.12;nan;101291.63;4996297;28;19918;-31
2022/12/16 01:05:12;;;;;;;;;;;;;;;-1.13;nan;101290.00;5002618;28;20024;-31
2022/12/16 01:07:37;;;;;;;;;;;;;;;-1.16;nan;101291.13;4998604;28;19918;-31
2022/12/16 01:10:03;;;;;;;;;;;;;;;-1.19;nan;101291.47;4994079;28;20258;-31
2022/12/16 01:12:28;;;;;;;;;;;;;;;-1.21;nan;101293.44;5000728;28;20093;-31
2022/12/16 01:14:54;;;;;;;;;;;;;;;-1.22;nan;101286.53;4997408;28;19917;-31
2022/12/16 01:17:19;;;;;;;;;;;;;;;-1.26;nan;101290.44;4993444;28;19917;-31
2022/12/16 01:19:44;;;;;;;;;;;;;;;-1.27;nan;101294.03;4996048;28;20396;-31
2022/12/16 01:22:10;;;;;;;;;;;;;;;-1.31;nan;101288.28;4998166;28;19921;-31
2022/12/16 01:24:35;;;;;;;;;;;;;;;-1.31;nan;101304.03;4991912;28;20156;-31
2022/12/16 01:27:01;;;;;;;;;;;;;;;-1.32;nan;101298.94;5000166;28;19917;-31
2022/12/16 01:29:26;;;;;;;;;;;;;;;-1.33;nan;101299.94;4992385;28;19948;-31
2022/12/16 01:31:51;;;;;;;;;;;;;;;-1.36;nan;101305.50;4997665;28;20170;-31
2022/12/16 01:34:17;;;;;;;;;;;;;;;-1.39;nan;101304.03;4997286;28;19932;-31
2022/12/16 01:36:42;;;;;;;;;;;;;;;-1.43;nan;101302.69;4999372;28;19922;-31
2022/12/16 01:39:08;;;;;;;;;;;;;;;-1.46;nan;101302.16;4996658;28;19917;-31
2022/12/16 01:41:33;;;;;;;;;;;;;;;-1.47;nan;101301.31;4996369;28;19922;-31
2022/12/16 01:44:19;;;;;;;;;;;;;;;-1.48;nan;101298.88;4991738;28;19917;-31
2022/12/16 01:46:49;;;;;;;;;;;;;;;-1.50;nan;101291.13;4995250;28;19957;-31
2022/12/16 01:49:28;;;;;;;;;;;;;;;-1.50;nan;101292.94;4998031;28;19928;-31
2022/12/16 01:51:57;;;;;;;;;;;;;;;-1.54;nan;101295.88;5000163;28;20380;-31
2022/12/16 01:54:30;;;;;;;;;;;;;;;-1.55;nan;101301.28;5001499;28;19922;-31
2022/12/16 01:57:01;;;;;;;;;;;;;;;-1.56;nan;101316.25;5000422;28;19924;-31
2022/12/16 01:59:27;;;;;;;;;;;;;;;-1.57;nan;101311.16;5001456;28;19931;-31
2022/12/16 02:01:53;;;;;;;;;;;;;;;-1.60;nan;101314.91;4993257;28;19976;-31
2022/12/16 02:04:18;;;;;;;;;;;;;;;-1.61;nan;101315.88;4996151;28;19921;-31
2022/12/16 02:06:44;;;;;;;;;;;;;;;-1.61;nan;101317.69;5002177;28;20304;-31
2022/12/16 02:09:10;;;;;;;;;;;;;;;-1.60;nan;101314.09;5002945;28;19917;-31
2022/12/16 02:11:41;;;;;;;;;;;;;;;-1.59;nan;101311.31;5002599;28;19922;-31
2022/12/16 02:14:26;;;;;;;;;;;;;;;-1.55;nan;101312.63;4999730;28;19932;-31
2022/12/16 02:17:10;;;;;;;;;;;;;;;-1.52;nan;101312.31;5000901;28;19921;-31
2022/12/16 02:20:03;;;;;;;;;;;;;;;-1.48;nan;101298.88;5001992;28;20009;-31
2022/12/16 02:22:37;;;;;;;;;;;;;;;-1.45;nan;101296.75;5004237;28;19918;-31
2022/12/16 02:25:02;;;;;;;;;;;;;;;-1.40;nan;101291.84;5001546;28;19924;-31
2022/12/16 02:27:44;;;;;;;;;;;;;;;-1.39;nan;101290.88;5001207;28;19918;-31
2022/12/16 02:30:22;;;;;;;;;;;;;;;-1.40;nan;101297.13;5000871;28;19921;-31
2022/12/16 02:33:06;;;;;;;;;;;;;;;-1.40;nan;101294.50;4999468;28;19937;-31
2022/12/16 02:35:34;;;;;;;;;;;;;;;-1.41;nan;101287.59;4997387;28;19918;-31
2022/12/16 02:38:07;;;;;;;;;;;;;;;-1.40;nan;101285.78;5000749;28;19917;-31
2022/12/16 02:40:40;;;;;;;;;;;;;;;-1.43;nan;101283.47;5001864;28;19917;-31
2022/12/16 02:43:16;;;;;;;;;;;;;;;-1.44;nan;101289.69;4999299;28;20365;-31
2022/12/16 02:45:42;;;;;;;;;;;;;;;-1.45;nan;101286.22;5000794;28;20003;-31
2022/12/16 02:48:07;;;;;;;;;;;;;;;-1.44;nan;101287.06;5001260;28;19944;-31
2022/12/16 02:50:39;;;;;;;;;;;;;;;-1.46;nan;101284.56;4997526;28;19922;-31
2022/12/16 02:53:07;;;;;;;;;;;;;;;-1.49;nan;101274.38;4999799;28;19925;-31
2022/12/16 02:55:44;;;;;;;;;;;;;;;-1.49;nan;101276.19;4999198;28;20352;-31
2022/12/16 02:58:15;;;;;;;;;;;;;;;-1.50;nan;101274.53;5000553;28;20008;-31
2022/12/16 03:00:50;;;;;;;;;;;;;;;-1.53;nan;101275.69;5004903;28;19917;-31
2022/12/16 03:03:20;;;;;;;;;;;;;;;-1.56;nan;101270.75;4999454;28;19921;-31
2022/12/16 03:05:47;;;;;;;;;;;;;;;-1.62;nan;101274.78;5000468;28;19918;-31
2022/12/16 03:08:28;;;;;;;;;;;;;;;-1.64;nan;101274.13;4998293;28;20186;-31
2022/12/16 03:10:56;;;;;;;;;;;;;;;-1.69;nan;101281.66;4999534;28;19925;-31
2022/12/16 03:13:22;;;;;;;;;;;;;;;-1.72;nan;101273.28;5002545;28;19924;-31
2022/12/16 03:15:49;;;;;;;;;;;;;;;-1.74;nan;101269.97;4999730;28;19922;-31
2022/12/16 03:18:15;;;;;;;;;;;;;;;-1.79;nan;101277.50;4996940;28;19922;-31
2022/12/16 03:20:44;;;;;;;;;;;;;;;-1.82;nan;101274.19;5004475;28;19956;-31
2022/12/16 03:23:12;;;;;;;;;;;;;;;-1.84;nan;101288.47;5002366;28;19917;-31
2022/12/16 03:25:40;;;;;;;;;;;;;;;-1.84;nan;101275.31;4997739;28;19918;-31
2022/12/16 03:28:17;;;;;;;;;;;;;;;-1.87;nan;101275.63;4995221;28;19918;-31
2022/12/16 03:30:46;;;;;;;;;;;;;;;-1.89;nan;101269.72;5004772;28;19929;-31
2022/12/16 03:33:18;;;;;;;;;;;;;;;-1.90;nan;101278.56;5002481;28;19917;-31
2022/12/16 03:35:47;;;;;;;;;;;;;;;-1.94;nan;101280.69;4996297;28;20443;-31
2022/12/16 03:38:14;;;;;;;;;;;;;;;-1.97;nan;101275.75;5001941;28;19996;-31
2022/12/16 03:40:41;;;;;;;;;;;;;;;-2.02;nan;101271.91;5005263;28;20303;-31
2022/12/16 03:43:07;;;;;;;;;;;;;;;-2.05;nan;101266.97;5000264;28;20220;-31
2022/12/16 03:45:37;;;;;;;;;;;;;;;-2.05;nan;101266.97;4996946;28;20056;-31
2022/12/16 03:48:05;;;;;;;;;;;;;;;-2.05;nan;101272.22;5001996;28;20393;-31
2022/12/16 03:50:31;;;;;;;;;;;;;;;-2.04;nan;101276.50;5002920;28;19936;-31
2022/12/16 03:52:57;;;;;;;;;;;;;;;-2.07;nan;101268.94;4998185;28;20559;-31
2022/12/16 03:55:23;;;;;;;;;;;;;;;-2.09;nan;101265.66;5004761;28;19917;-31
2022/12/16 03:57:48;;;;;;;;;;;;;;;-2.10;nan;101264.81;4997043;28;19961;-31
2022/12/16 04:00:14;;;;;;;;;;;;;;;-2.12;nan;101266.78;5000052;28;19932;-31
2022/12/16 04:02:39;;;;;;;;;;;;;;;-2.14;nan;101269.56;5000994;28;20408;-31
2022/12/16 04:05:05;;;;;;;;;;;;;;;-2.17;nan;101263.75;4996994;28;19918;-31
2022/12/16 04:07:31;;;;;;;;;;;;;;;-2.20;nan;101275.41;5002947;28;19918;-31
2022/12/16 04:09:56;;;;;;;;;;;;;;;-2.21;nan;101280.81;5000367;28;19960;-31
2022/12/16 04:26:05;;;;;;;;;;;;;;;-2.27;nan;101294.53;4997030;28;20002;-31
2022/12/16 04:28:31;;;;;;;;;;;;;;;-2.28;nan;101304.22;4991939;28;20016;-31
2022/12/16 04:30:56;;;;;;;;;;;;;;;-2.26;nan;101304.88;5001540;28;19948;-31
